Time;durP1;ratioP1;P1;durP2;ratioP2;P2;SDS_P1;SDS_P2;PMS_P1;PMS_P2;Temp;Humidity;BMP_temperature;BMP_pressure;BME280_temperature;BME280_humidity;BME280_pressure;Samples;Min_cycle;Max_cycle;Signal;HPM_P1;HPM_P2
2022/12/18 00:01:05;;;;;;;5.97;3.70;;;;;;;-1.94;100.00;97094.50;5038237;28;20234;-86
2022/12/18 00:03:33;;;;;;;5.97;3.33;;;;;;;-1.90;100.00;97103.84;5020923;28;20321;-87
2022/12/18 00:06:01;;;;;;;5.03;3.30;;;;;;;-1.91;100.00;97110.13;5042911;28;20219;-87
2022/12/18 00:08:28;;;;;;;6.67;3.73;;;;;;;-1.96;100.00;97115.81;5050465;28;20233;-85
2022/12/18 00:10:56;;;;;;;4.67;3.60;;;;;;;-1.97;100.00;97118.59;5052083;28;20413;-84
2022/12/18 00:13:23;;;;;;;5.93;3.30;;;;;;;-1.91;100.00;97126.00;5041797;28;20210;-85
2022/12/18 00:15:54;;;;;;;6.47;3.73;;;;;;;-1.99;100.00;97113.44;5040652;28;20202;-85
2022/12/18 00:18:21;;;;;;;6.40;4.50;;;;;;;-2.03;100.00;97111.19;5050325;28;20214;-84
2022/12/18 00:20:48;;;;;;;6.03;3.90;;;;;;;-2.01;100.00;97127.78;5049854;28;20198;-85
2022/12/18 00:23:15;;;;;;;6.13;3.37;;;;;;;-1.97;100.00;97129.19;5043909;28;20233;-85
2022/12/18 00:25:42;;;;;;;6.20;3.37;;;;;;;-1.99;100.00;97125.84;5046876;28;20253;-84
2022/12/18 00:28:09;;;;;;;6.70;3.87;;;;;;;-2.00;100.00;97124.16;5050446;28;20201;-85
2022/12/18 00:30:37;;;;;;;7.63;4.67;;;;;;;-2.01;100.00;97122.47;5045115;28;20205;-85
2022/12/18 00:33:05;;;;;;;6.73;4.37;;;;;;;-2.00;100.00;97132.09;5049581;28;20209;-82
2022/12/18 00:35:33;;;;;;;7.10;4.03;;;;;;;-1.97;100.00;97142.44;5045938;28;20288;-83
2022/12/18 00:38:00;;;;;;;6.27;3.90;;;;;;;-1.99;100.00;97141.72;5046109;28;20210;-85
2022/12/18 00:40:27;;;;;;;5.23;3.40;;;;;;;-2.00;100.00;97143.53;5045397;28;20206;-85
2022/12/18 00:42:56;;;;;;;5.70;3.33;;;;;;;-2.06;100.00;97146.72;5046931;28;20203;-85
2022/12/18 00:45:23;;;;;;;7.67;3.93;;;;;;;-1.99;100.00;97168.19;5048035;28;20214;-84
2022/12/18 00:47:50;;;;;;;5.30;3.13;;;;;;;-1.98;100.00;97169.84;5046788;28;20260;-85
2022/12/18 00:50:19;;;;;;;5.03;3.40;;;;;;;-2.19;100.00;97169.88;5046020;28;20293;-85
2022/12/18 00:52:47;;;;;;;5.17;3.17;;;;;;;-2.26;100.00;97181.13;5044989;28;20210;-84
2022/12/18 00:55:15;;;;;;;5.73;3.20;;;;;;;-2.29;100.00;97175.13;5044769;28;20222;-84
2022/12/18 00:57:43;;;;;;;5.40;3.13;;;;;;;-2.20;100.00;97181.44;5046118;28;20210;-84
2022/12/18 01:00:13;;;;;;;4.67;2.77;;;;;;;-2.18;100.00;97187.44;5045132;28;20198;-83
2022/12/18 01:02:42;;;;;;;5.83;3.20;;;;;;;-2.24;100.00;97187.97;5043644;28;20325;-84
2022/12/18 01:05:11;;;;;;;4.83;2.90;;;;;;;-2.27;100.00;97188.22;5044622;28;20226;-85
2022/12/18 01:07:40;;;;;;;4.63;3.00;;;;;;;-2.46;100.00;97183.66;5047186;28;20206;-84
2022/12/18 01:10:08;;;;;;;5.40;3.00;;;;;;;-2.54;100.00;97180.81;5040322;28;20247;-84
2022/12/18 01:12:36;;;;;;;4.77;3.13;;;;;;;-2.64;100.00;97177.28;5051974;28;20198;-84
2022/12/18 01:15:04;;;;;;;5.97;3.17;;;;;;;-2.72;100.00;97179.72;5045548;28;20212;-84
2022/12/18 01:17:31;;;;;;;5.47;3.33;;;;;;;-2.70;100.00;97193.66;5046434;28;20202;-84
2022/12/18 01:20:01;;;;;;;6.17;3.17;;;;;;;-2.83;100.00;97171.84;5048217;28;20226;-84
2022/12/18 01:22:28;;;;;;;4.27;2.67;;;;;;;-2.74;100.00;97181.66;5050279;28;20213;-84
2022/12/18 01:24:56;;;;;;;6.10;2.80;;;;;;;-2.73;100.00;97178.91;5046223;28;20206;-85
2022/12/18 01:27:24;;;;;;;6.20;2.60;;;;;;;-2.74;100.00;97166.66;5047472;28;20205;-86
2022/12/18 01:29:52;;;;;;;6.33;2.63;;;;;;;-2.73;100.00;97180.69;5049174;28;20205;-86
2022/12/18 01:32:20;;;;;;;4.77;2.63;;;;;;;-2.78;100.00;97173.13;5039180;28;20232;-86
2022/12/18 01:34:47;;;;;;;4.53;2.50;;;;;;;-2.63;100.00;97184.22;5041706;28;20213;-86
2022/12/18 01:37:14;;;;;;;2.97;2.00;;;;;;;-2.74;100.00;97160.50;5041693;28;20209;-87
2022/12/18 01:39:41;;;;;;;5.73;2.60;;;;;;;-2.71;100.00;97176.94;5043366;28;20292;-87
2022/12/18 01:42:14;;;;;;;3.73;2.43;;;;;;;-2.76;100.00;97162.44;5052089;28;20209;-86
2022/12/18 01:44:58;;;;;;;3.37;2.37;;;;;;;-2.70;100.00;97157.47;5045289;28;20234;-85
2022/12/18 01:47:30;;;;;;;6.40;2.73;;;;;;;-2.75;100.00;97154.38;5037106;28;20227;-86
2022/12/18 01:49:58;;;;;;;3.93;2.47;;;;;;;-2.74;100.00;97156.06;5047710;28;20287;-85
2022/12/18 01:52:29;;;;;;;4.37;2.10;;;;;;;-2.72;100.00;97171.78;5044989;28;20219;-87
2022/12/18 01:54:58;;;;;;;3.87;2.30;;;;;;;-2.72;100.00;97154.13;5045985;28;20353;-87
2022/12/18 01:57:29;;;;;;;3.70;2.20;;;;;;;-2.76;100.00;97149.22;5036117;28;20207;-87
2022/12/18 02:00:01;;;;;;;4.07;2.40;;;;;;;-2.73;100.00;97155.09;5045938;28;20209;-87
2022/12/18 02:02:31;;;;;;;3.63;2.43;;;;;;;-2.79;100.00;97145.03;5045736;28;20210;-87
2022/12/18 02:05:00;;;;;;;4.87;2.53;;;;;;;-2.78;100.00;97144.06;5041583;28;20240;-87
2022/12/18 02:07:38;;;;;;;4.70;2.60;;;;;;;-2.73;100.00;97155.09;5040654;28;20230;-87
2022/12/18 02:10:14;;;;;;;4.33;2.87;;;;;;;-2.69;100.00;97153.88;5045376;28;20249;-87
2022/12/18 02:12:52;;;;;;;6.67;3.20;;;;;;;-2.66;100.00;97150.13;5047044;28;20220;-87
2022/12/18 02:15:28;;;;;;;5.33;3.40;;;;;;;-2.62;100.00;97145.41;5044923;28;20284;-86
2022/12/18 02:18:00;;;;;;;5.33;2.90;;;;;;;-2.58;100.00;97147.69;5049464;28;20213;-87
2022/12/18 02:20:34;;;;;;;7.43;3.63;;;;;;;-2.49;100.00;97156.63;5044385;28;20206;-87
2022/12/18 02:23:24;;;;;;;7.93;4.17;;;;;;;-2.53;100.00;97148.13;5039038;28;20199;-87
2022/12/18 02:26:08;;;;;;;9.70;5.07;;;;;;;-2.54;100.00;97151.72;5043468;28;20219;-87
2022/12/18 02:28:39;;;;;;;6.43;3.93;;;;;;;-2.47;100.00;97160.00;5046561;28;20301;-87
2022/12/18 02:31:12;;;;;;;7.77;4.37;;;;;;;-2.41;100.00;97170.91;5048015;28;20231;-84
2022/12/18 02:33:42;;;;;;;6.07;3.60;;;;;;;-2.39;100.00;97163.66;5060231;28;20509;-86
2022/12/18 02:36:14;;;;;;;6.77;3.50;;;;;;;-2.44;100.00;97151.78;5035552;28;20209;-85
2022/12/18 02:38:45;;;;;;;6.03;3.53;;;;;;;-2.49;100.00;97169.88;5047630;28;20210;-85
2022/12/18 02:41:17;;;;;;;5.50;3.43;;;;;;;-2.50;100.00;97178.75;5046794;28;20232;-85
2022/12/18 02:43:48;;;;;;;6.33;3.00;;;;;;;-2.45;100.00;97181.84;5047057;28;20256;-85
2022/12/18 02:46:29;;;;;;;4.83;3.10;;;;;;;-2.55;100.00;97173.84;5037030;28;20229;-86
2022/12/18 02:49:16;;;;;;;5.77;3.33;;;;;;;-2.55;100.00;97186.25;5037896;28;20285;-87
2022/12/18 02:51:53;;;;;;;3.07;2.33;;;;;;;-2.67;100.00;97172.25;5038468;28;20225;-88
2022/12/18 02:54:31;;;;;;;7.60;2.80;;;;;;;-2.57;100.00;97194.31;5048634;28;20201;-88
2022/12/18 02:57:06;;;;;;;5.27;2.77;;;;;;;-2.57;100.00;97196.13;5063307;28;20212;-88
2022/12/18 02:59:43;;;;;;;4.27;2.77;;;;;;;-2.62;100.00;97193.00;5039750;28;20206;-88
2022/12/18 03:02:23;;;;;;;4.93;3.30;;;;;;;-2.59;100.00;97201.53;5035733;28;20207;-88
2022/12/18 03:04:58;;;;;;;5.67;3.20;;;;;;;-2.68;100.00;97202.28;5044088;28;20198;-88
2022/12/18 03:07:34;;;;;;;5.90;3.50;;;;;;;-2.62;100.00;97215.00;5038142;28;20226;-89
2022/12/18 03:10:02;;;;;;;5.77;3.30;;;;;;;-2.65;100.00;97195.91;5041609;28;20230;-89
2022/12/18 03:12:36;;;;;;;6.83;4.07;;;;;;;-2.53;100.00;97211.56;5049026;28;20197;-88
2022/12/18 03:15:09;;;;;;;6.27;3.67;;;;;;;-2.56;100.00;97211.84;5053603;28;20289;-89
2022/12/18 03:17:41;;;;;;;5.17;3.57;;;;;;;-2.56;100.00;97227.72;5045520;28;20228;-89
2022/12/18 03:20:13;;;;;;;5.87;3.77;;;;;;;-2.54;100.00;97227.56;5039805;28;20202;-89
2022/12/18 03:22:43;;;;;;;6.10;3.50;;;;;;;-2.65;100.00;97214.44;5045890;28;20229;-89
2022/12/18 03:25:14;;;;;;;6.53;3.33;;;;;;;-2.71;100.00;97197.25;5045472;28;20206;-89
2022/12/18 03:27:48;;;;;;;6.40;4.00;;;;;;;-2.71;100.00;97208.66;5038277;28;20238;-90
2022/12/18 03:30:18;;;;;;;6.70;4.23;;;;;;;-2.75;100.00;97211.69;5049168;28;20200;-89
2022/12/18 03:32:50;;;;;;;8.47;4.90;;;;;;;-2.83;100.00;97209.69;5044102;28;20240;-90
2022/12/18 03:35:24;;;;;;;6.63;4.13;;;;;;;-2.87;100.00;97208.25;5048751;28;20249;-89
2022/12/18 03:37:51;;;;;;;9.30;4.30;;;;;;;-2.82;100.00;97224.59;5048991;28;20200;-89
2022/12/18 03:40:20;;;;;;;7.30;4.00;;;;;;;-2.92;100.00;97217.53;5046281;28;20213;-89
2022/12/18 03:42:52;;;;;;;7.20;3.97;;;;;;;-2.94;100.00;97224.75;5045711;28;20218;-89
2022/12/18 03:45:25;;;;;;;6.90;4.10;;;;;;;-2.98;100.00;97218.06;5048767;28;20201;-89
2022/12/18 03:48:02;;;;;;;7.00;3.80;;;;;;;-2.96;100.00;97224.03;5047441;28;20227;-89
2022/12/18 03:50:43;;;;;;;6.50;3.87;;;;;;;-3.03;100.00;97228.13;5049791;28;20218;-90
2022/12/18 03:53:23;;;;;;;7.03;4.17;;;;;;;-3.19;100.00;97208.25;5050594;28;20200;-89
2022/12/18 03:55:52;;;;;;;7.67;4.33;;;;;;;-3.21;100.00;97222.53;5052176;28;20304;-89
2022/12/18 03:58:25;;;;;;;7.83;3.70;;;;;;;-3.26;100.00;97219.44;5049500;28;20243;-90
2022/12/18 04:01:03;;;;;;;6.80;4.00;;;;;;;-3.22;100.00;97221.69;5049876;28;20203;-90
2022/12/18 04:03:35;;;;;;;7.57;4.33;;;;;;;-3.22;100.00;97224.34;5043956;28;20292;-89
2022/12/18 04:06:04;;;;;;;8.10;4.27;;;;;;;-3.16;100.00;97228.31;5051184;28;20208;-89
2022/12/18 04:08:34;;;;;;;13.87;7.47;;;;;;;-3.19;100.00;97216.19;5044683;28;20197;-89
2022/12/18 04:11:07;;;;;;;8.33;4.60;;;;;;;-3.17;100.00;97222.19;5043864;28;20223;-89
2022/12/18 04:13:38;;;;;;;10.63;4.63;;;;;;;-3.17;100.00;97216.91;5041123;28;20205;-89
2022/12/18 04:16:14;;;;;;;6.47;3.67;;;;;;;-3.07;100.00;97227.56;5047109;28;20213;-89
2022/12/18 04:18:44;;;;;;;6.73;3.67;;;;;;;-3.02;100.00;97237.75;5049773;28;20210;-89
2022/12/18 04:21:11;;;;;;;8.87;4.40;;;;;;;-2.98;100.00;97249.75;5049761;28;20240;-90
2022/12/18 04:23:38;;;;;;;6.87;4.40;;;;;;;-3.08;100.00;97247.84;5050934;28;20225;-88
2022/12/18 04:26:09;;;;;;;8.63;4.17;;;;;;;-3.06;100.00;97267.03;5044570;28;20214;-89
2022/12/18 04:28:57;;;;;;;5.87;3.37;;;;;;;-3.06;100.00;97266.19;5043583;28;20220;-89
2022/12/18 04:31:25;;;;;;;7.83;3.97;;;;;;;-3.14;100.00;97263.34;5044919;28;20230;-89
2022/12/18 04:33:52;;;;;;;7.03;4.17;;;;;;;-3.07;100.00;97280.41;5049952;28;20206;-89
2022/12/18 04:36:20;;;;;;;7.53;4.50;;;;;;;-3.06;100.00;97280.25;5052099;28;20201;-88
2022/12/18 04:38:47;;;;;;;6.13;3.50;;;;;;;-3.10;100.00;97270.91;5048266;28;20206;-90
2022/12/18 04:41:17;;;;;;;8.13;4.83;;;;;;;-3.05;100.00;97276.66;5045361;28;20229;-89
2022/12/18 04:43:47;;;;;;;6.73;4.13;;;;;;;-3.07;100.00;97285.69;5042187;28;20207;-89
2022/12/18 04:46:15;;;;;;;12.70;5.37;;;;;;;-3.01;100.00;97293.13;5045778;28;20203;-90
2022/12/18 04:48:42;;;;;;;6.87;4.53;;;;;;;-3.07;100.00;97289.16;5039788;28;20206;-89
2022/12/18 04:51:09;;;;;;;7.47;4.60;;;;;;;-3.07;100.00;97296.25;5049021;28;20240;-89
2022/12/18 04:53:36;;;;;;;8.60;4.63;;;;;;;-3.09;100.00;97299.00;5042332;28;20193;-89
2022/12/18 04:56:05;;;;;;;8.23;4.40;;;;;;;-3.21;100.00;97289.41;5040267;28;20200;-89
2022/12/18 04:58:33;;;;;;;8.10;5.13;;;;;;;-3.13;100.00;97316.06;5048827;28;20238;-90
2022/12/18 05:01:00;;;;;;;11.00;5.73;;;;;;;-3.19;100.00;97300.72;5048353;28;20202;-89
2022/12/18 05:03:28;;;;;;;9.37;4.83;;;;;;;-3.05;100.00;97321.56;5052413;28;20191;-88
2022/12/18 05:05:55;;;;;;;9.03;5.23;;;;;;;-3.05;100.00;97316.28;5054748;28;20214;-89
2022/12/18 05:08:22;;;;;;;9.17;4.93;;;;;;;-3.05;100.00;97312.81;5045992;28;20300;-89
2022/12/18 05:10:50;;;;;;;9.13;5.57;;;;;;;-2.98;100.00;97305.25;5048786;28;20217;-89
2022/12/18 05:13:16;;;;;;;11.63;5.70;;;;;;;-2.95;100.00;97316.38;5043352;28;20211;-90
2022/12/18 05:15:43;;;;;;;9.43;5.43;;;;;;;-3.05;100.00;97303.06;5052574;28;20297;-90
2022/12/18 05:18:10;;;;;;;8.30;4.70;;;;;;;-3.13;100.00;97313.41;5048784;28;20212;-89
2022/12/18 05:20:39;;;;;;;9.03;4.67;;;;;;;-3.04;100.00;97319.78;5043113;28;20366;-88
2022/12/18 05:23:06;;;;;;;8.20;4.33;;;;;;;-3.03;100.00;97302.13;5045876;28;20202;-89
2022/12/18 05:25:33;;;;;;;10.03;5.00;;;;;;;-2.97;100.00;97320.94;5047821;28;20210;-90
2022/12/18 05:28:00;;;;;;;7.67;4.30;;;;;;;-3.02;100.00;97306.44;5047386;28;20225;-89
2022/12/18 05:30:28;;;;;;;7.07;4.33;;;;;;;-3.02;100.00;97309.94;5048971;28;20205;-90
2022/12/18 05:32:55;;;;;;;7.10;4.10;;;;;;;-2.95;100.00;97300.53;5047963;28;20202;-90
2022/12/18 05:35:22;;;;;;;7.33;4.30;;;;;;;-2.87;100.00;97307.84;5046273;28;20203;-90
2022/12/18 05:37:50;;;;;;;7.03;4.10;;;;;;;-2.88;100.00;97306.16;5046302;28;20206;-90
2022/12/18 05:40:17;;;;;;;10.03;5.37;;;;;;;-2.93;100.00;97303.06;5036343;28;20218;-90
2022/12/18 05:42:44;;;;;;;9.40;4.80;;;;;;;-3.01;100.00;97293.13;5050501;28;20225;-89
2022/12/18 05:45:11;;;;;;;9.80;4.67;;;;;;;-3.03;100.00;97296.84;5044353;28;20206;-90
2022/12/18 05:47:38;;;;;;;7.80;4.27;;;;;;;-3.06;100.00;97306.69;5047297;28;20227;-89
2022/12/18 05:50:07;;;;;;;8.10;4.30;;;;;;;-3.16;100.00;97287.25;5049385;28;20301;-89
2022/12/18 05:52:34;;;;;;;9.17;4.23;;;;;;;-3.17;100.00;97295.31;5037769;28;20200;-90
2022/12/18 05:55:03;;;;;;;7.13;3.93;;;;;;;-3.12;100.00;97293.13;5050644;28;20206;-91
2022/12/18 05:57:30;;;;;;;7.70;4.07;;;;;;;-3.13;100.00;97289.63;5051218;28;20212;-89
2022/12/18 05:59:57;;;;;;;9.07;4.70;;;;;;;-3.05;100.00;97292.50;5048934;28;20209;-90
2022/12/18 06:02:24;;;;;;;7.03;4.20;;;;;;;-3.09;100.00;97282.31;5045353;28;20302;-89
2022/12/18 06:04:51;;;;;;;11.57;4.93;;;;;;;-3.13;100.00;97276.44;5048054;28;20201;-90
2022/12/18 06:07:18;;;;;;;8.33;4.87;;;;;;;-3.19;100.00;97273.44;5048831;28;20234;-89
2022/12/18 06:09:45;;;;;;;9.30;4.63;;;;;;;-141.59;100.00;61776.25;5045899;28;20203;-90
2022/12/18 06:12:13;;;;;;;8.77;4.57;;;;;;;-141.59;100.00;61776.25;5046878;28;20220;-89
2022/12/18 06:14:41;;;;;;;9.10;4.60;;;;;;;-141.59;100.00;61776.25;5041512;28;20264;-90
2022/12/18 06:17:08;;;;;;;12.00;5.17;;;;;;;-141.59;100.00;61776.25;5042465;28;20199;-90
2022/12/18 06:19:35;;;;;;;8.20;4.70;;;;;;;-141.59;100.00;61776.25;5037785;28;20239;-90
2022/12/18 06:22:01;;;;;;;8.93;4.80;;;;;;;-141.59;100.00;61776.25;5045572;28;20275;-90
2022/12/18 06:24:29;;;;;;;8.37;5.03;;;;;;;-141.59;100.00;61776.25;5045222;28;20225;-90
2022/12/18 06:26:56;;;;;;;7.53;4.50;;;;;;;-141.59;100.00;61776.25;5044958;28;20225;-89
2022/12/18 06:29:24;;;;;;;7.47;4.77;;;;;;;-141.59;100.00;61776.25;5048426;28;20216;-89
2022/12/18 06:31:51;;;;;;;8.57;4.40;;;;;;;-141.59;100.00;61776.25;5040541;28;20242;-89
2022/12/18 06:34:18;;;;;;;6.83;4.73;;;;;;;-141.59;100.00;61776.25;5048054;28;20229;-90
2022/12/18 06:36:45;;;;;;;7.27;4.27;;;;;;;-141.59;100.00;61776.25;5047294;28;20212;-89
2022/12/18 06:39:12;;;;;;;10.53;4.97;;;;;;;-141.59;100.00;61776.25;5041081;28;20203;-89
2022/12/18 06:41:39;;;;;;;9.03;5.03;;;;;;;-141.59;100.00;61776.25;5039047;28;20220;-89
2022/12/18 06:44:06;;;;;;;8.57;4.87;;;;;;;-141.59;100.00;61776.25;5035054;28;20206;-89
2022/12/18 06:46:35;;;;;;;9.63;4.53;;;;;;;-141.59;100.00;61776.25;5045891;28;20201;-89
2022/12/18 06:49:03;;;;;;;6.90;4.20;;;;;;;-141.59;100.00;61776.25;5043122;28;20229;-90
2022/12/18 06:51:30;;;;;;;9.37;5.30;;;;;;;-141.59;100.00;61776.25;5039904;28;20248;-89
2022/12/18 06:53:57;;;;;;;9.60;5.03;;;;;;;-141.59;100.00;61776.25;5045242;28;20237;-89
2022/12/18 06:56:24;;;;;;;9.23;4.60;;;;;;;-141.59;100.00;61776.25;5043744;28;20281;-89
2022/12/18 06:58:51;;;;;;;9.87;5.47;;;;;;;-141.59;100.00;61776.25;5047424;28;20305;-89
2022/12/18 07:01:18;;;;;;;10.07;5.40;;;;;;;-141.59;100.00;61776.25;5044929;28;20285;-89
2022/12/18 07:03:46;;;;;;;7.70;5.27;;;;;;;-141.59;100.00;61776.25;5045506;28;20256;-89
2022/12/18 07:06:18;;;;;;;9.13;4.83;;;;;;;-141.59;100.00;61776.25;5039719;28;20194;-88
2022/12/18 07:08:45;;;;;;;11.47;5.67;;;;;;;-141.59;100.00;61776.25;5046028;28;20291;-88
2022/12/18 07:11:12;;;;;;;11.67;5.90;;;;;;;-141.59;100.00;61776.25;5046693;28;20234;-89
2022/12/18 07:13:40;;;;;;;9.03;5.00;;;;;;;-141.59;100.00;61776.25;5058634;28;20248;-90
2022/12/18 07:16:09;;;;;;;8.83;5.10;;;;;;;-141.59;100.00;61776.25;5042104;28;20206;-89
2022/12/18 07:18:36;;;;;;;8.90;5.20;;;;;;;-141.59;100.00;61776.25;5045572;28;20203;-89
2022/12/18 07:21:09;;;;;;;11.03;6.70;;;;;;;-141.59;100.00;61776.25;5039107;28;20216;-88
2022/12/18 07:23:37;;;;;;;14.13;5.83;;;;;;;-141.59;100.00;61776.25;5037525;28;20209;-89
2022/12/18 07:26:05;;;;;;;11.33;6.20;;;;;;;-141.59;100.00;61776.25;5038951;28;20297;-89
2022/12/18 07:28:32;;;;;;;10.00;5.80;;;;;;;-141.59;100.00;61776.25;5040241;28;20238;-88
2022/12/18 07:31:03;;;;;;;9.30;5.53;;;;;;;-141.59;100.00;61776.25;5040155;28;20244;-89
2022/12/18 07:33:30;;;;;;;9.87;5.70;;;;;;;-141.59;100.00;61776.25;5031866;28;20217;-88
2022/12/18 07:35:57;;;;;;;11.53;6.27;;;;;;;-141.59;100.00;61776.25;5038192;28;20206;-89
2022/12/18 07:38:25;;;;;;;10.07;6.30;;;;;;;-141.59;100.00;61776.25;5044460;28;20248;-89
2022/12/18 07:40:52;;;;;;;12.03;6.93;;;;;;;-141.59;100.00;61776.25;5040760;28;20206;-89
2022/12/18 07:43:19;;;;;;;10.63;6.13;;;;;;;-141.59;100.00;61776.25;5039321;28;20224;-88
2022/12/18 07:45:49;;;;;;;11.80;6.60;;;;;;;-141.59;100.00;61776.25;5035757;28;20214;-88
2022/12/18 07:48:17;;;;;;;11.23;6.53;;;;;;;-141.59;100.00;61776.25;5041631;28;20221;-88
2022/12/18 07:50:44;;;;;;;11.50;7.40;;;;;;;-141.59;100.00;61776.25;5041054;28;20209;-89
2022/12/18 07:53:11;;;;;;;14.60;8.53;;;;;;;-141.59;100.00;61776.25;5043319;28;20228;-89
2022/12/18 07:55:39;;;;;;;13.73;8.17;;;;;;;-141.59;100.00;61776.25;5042389;28;20259;-90
2022/12/18 07:58:07;;;;;;;10.97;6.90;;;;;;;-141.59;100.00;61776.25;5042427;28;20226;-90
2022/12/18 08:00:34;;;;;;;14.50;7.03;;;;;;;-141.59;100.00;61776.25;5034548;28;20205;-89
2022/12/18 08:03:02;;;;;;;13.17;7.70;;;;;;;-141.59;100.00;61776.25;5037904;28;20214;-89
2022/12/18 08:05:29;;;;;;;12.83;6.67;;;;;;;-141.59;100.00;61776.25;5058687;28;20217;-89
2022/12/18 08:07:56;;;;;;;10.80;6.17;;;;;;;-141.59;100.00;61776.25;5043782;28;20304;-88
2022/12/18 08:10:24;;;;;;;13.60;6.50;;;;;;;-141.59;100.00;61776.25;5047532;28;20233;-89
2022/12/18 08:12:53;;;;;;;12.90;7.00;;;;;;;-141.59;100.00;61776.25;5035820;28;20200;-89
2022/12/18 08:15:20;;;;;;;13.17;6.97;;;;;;;-141.59;100.00;61776.25;5046274;28;20196;-84
2022/12/18 08:17:47;;;;;;;10.20;6.37;;;;;;;-141.59;100.00;61776.25;5047912;28;20205;-83
2022/12/18 08:20:14;;;;;;;11.40;6.80;;;;;;;-141.59;100.00;61776.25;5040589;28;20206;-83
2022/12/18 08:22:42;;;;;;;19.53;9.70;;;;;;;-141.59;100.00;61776.25;5047495;28;20215;-83
2022/12/18 08:25:09;;;;;;;19.67;10.37;;;;;;;-141.59;100.00;61776.25;5042042;28;20201;-85
2022/12/18 08:27:36;;;;;;;14.70;9.10;;;;;;;-141.59;100.00;61776.25;5046406;28;20227;-90
2022/12/18 08:30:09;;;;;;;16.23;9.10;;;;;;;-141.59;100.00;61776.25;5040000;28;20217;-90
2022/12/18 08:32:36;;;;;;;15.50;8.50;;;;;;;-141.59;100.00;61776.25;5043272;28;20254;-91
2022/12/18 08:35:03;;;;;;;15.10;7.30;;;;;;;-141.59;100.00;61776.25;5040799;28;20216;-90
2022/12/18 08:37:30;;;;;;;14.93;8.03;;;;;;;-141.59;100.00;61776.25;5040287;28;20202;-85
2022/12/18 08:39:58;;;;;;;14.10;7.83;;;;;;;-141.59;100.00;61776.25;5040961;28;20217;-91
2022/12/18 08:45:11;;;;;;;16.53;8.40;;;;;;;-141.59;100.00;61776.25;5047287;28;20213;-90
2022/12/18 08:47:38;;;;;;;14.37;8.43;;;;;;;-141.59;100.00;61776.25;5045887;28;20271;-90
2022/12/18 08:50:12;;;;;;;15.63;8.43;;;;;;;-141.59;100.00;61776.25;5042848;28;20200;-89
2022/12/18 08:52:41;;;;;;;16.73;9.00;;;;;;;-141.59;100.00;61776.25;5043441;28;20202;-88
2022/12/18 08:55:12;;;;;;;13.30;8.00;;;;;;;-141.59;100.00;61776.25;5050369;28;20200;-89
2022/12/18 08:57:39;;;;;;;12.97;8.07;;;;;;;-141.59;100.00;61776.25;5045550;28;20209;-85
2022/12/18 09:00:12;;;;;;;15.27;8.20;;;;;;;-141.59;100.00;61776.25;5043158;28;20213;-87
2022/12/18 09:02:40;;;;;;;13.70;7.77;;;;;;;-141.59;100.00;61776.25;5042145;28;20227;-88
2022/12/18 09:05:07;;;;;;;12.90;7.90;;;;;;;-141.59;100.00;61776.25;5048483;28;20222;-87
2022/12/18 09:07:34;;;;;;;14.23;8.20;;;;;;;-141.59;100.00;61776.25;5034599;28;20213;-88
2022/12/18 09:10:01;;;;;;;16.53;8.30;;;;;;;-141.59;100.00;61776.25;5051840;28;20228;-89
2022/12/18 09:12:28;;;;;;;14.70;8.23;;;;;;;-141.59;100.00;61776.25;5044639;28;20261;-85
2022/12/18 09:14:56;;;;;;;14.83;8.20;;;;;;;-141.59;100.00;61776.25;5047197;28;20206;-89
2022/12/18 09:17:25;;;;;;;12.70;8.00;;;;;;;-141.59;100.00;61776.25;5047031;28;20210;-86
2022/12/18 09:19:52;;;;;;;16.67;8.70;;;;;;;-141.59;100.00;61776.25;5043082;28;20229;-87
2022/12/18 09:22:19;;;;;;;15.20;8.77;;;;;;;-141.59;100.00;61776.25;5051241;28;20202;-88
2022/12/18 09:24:46;;;;;;;13.20;7.47;;;;;;;-141.59;100.00;61776.25;5045033;28;20278;-84
2022/12/18 09:27:13;;;;;;;15.53;8.00;;;;;;;-141.59;100.00;61776.25;5039479;28;20210;-90
2022/12/18 09:29:40;;;;;;;13.10;7.57;;;;;;;-141.59;100.00;61776.25;5039770;28;20244;-88
2022/12/18 09:32:07;;;;;;;13.57;7.63;;;;;;;-141.59;100.00;61776.25;5046531;28;20253;-90
2022/12/18 09:34:35;;;;;;;15.00;8.77;;;;;;;-141.59;100.00;61776.25;5041893;28;20210;-89
2022/12/18 09:37:02;;;;;;;15.73;8.50;;;;;;;-141.59;100.00;61776.25;5034580;28;20211;-87
2022/12/18 09:39:29;;;;;;;15.93;8.73;;;;;;;-141.59;100.00;61776.25;5039615;28;20290;-88
2022/12/18 09:41:59;;;;;;;13.50;7.83;;;;;;;-141.59;100.00;61776.25;5035321;28;20303;-91
2022/12/18 09:44:28;;;;;;;15.07;7.50;;;;;;;-141.59;100.00;61776.25;5037392;28;20304;-88
2022/12/18 09:47:06;;;;;;;15.33;8.23;;;;;;;-141.59;100.00;61776.25;5037259;28;20198;-89
2022/12/18 09:49:40;;;;;;;14.73;7.93;;;;;;;-141.59;100.00;61776.25;5044273;28;20230;-89
2022/12/18 09:52:13;;;;;;;11.23;7.43;;;;;;;-141.59;100.00;61776.25;5043371;28;20203;-89
2022/12/18 09:54:54;;;;;;;11.43;6.63;;;;;;;-141.59;100.00;61776.25;5039394;28;20230;-91
2022/12/18 09:57:23;;;;;;;13.63;7.53;;;;;;;-141.59;100.00;61776.25;5041997;28;20214;-88
2022/12/18 09:59:56;;;;;;;11.73;7.10;;;;;;;-141.59;100.00;61776.25;5036013;28;20195;-90
2022/12/18 10:02:25;;;;;;;11.70;7.13;;;;;;;-141.59;100.00;61776.25;5045510;28;20279;-89
2022/12/18 10:05:06;;;;;;;14.37;7.97;;;;;;;-141.59;100.00;61776.25;5045498;28;20202;-90
2022/12/18 10:07:44;;;;;;;15.90;9.33;;;;;;;-141.59;100.00;61776.25;5046314;28;20219;-90
2022/12/18 10:10:23;;;;;;;13.43;7.83;;;;;;;-141.59;100.00;61776.25;5049963;28;20229;-90
2022/12/18 10:13:01;;;;;;;11.53;7.50;;;;;;;-141.59;100.00;61776.25;5042868;28;20213;-89
2022/12/18 10:15:36;;;;;;;14.47;7.97;;;;;;;-141.59;100.00;61776.25;5044656;28;20203;-90
2022/12/18 10:18:16;;;;;;;14.00;7.20;;;;;;;-141.59;100.00;61776.25;5060293;28;20210;-88
2022/12/18 10:20:49;;;;;;;14.50;7.57;;;;;;;-141.59;100.00;61776.25;5037790;28;20228;-90
2022/12/18 10:23:24;;;;;;;10.87;6.90;;;;;;;-141.59;100.00;61776.25;5044112;28;20201;-89
2022/12/18 10:25:56;;;;;;;12.87;6.33;;;;;;;-141.59;100.00;61776.25;5043585;28;20191;-89
2022/12/18 10:28:24;;;;;;;12.07;7.23;;;;;;;-141.59;100.00;61776.25;5042453;28;20230;-92
2022/12/18 10:30:51;;;;;;;12.57;8.17;;;;;;;-141.59;100.00;61776.25;5035279;28;20206;-89
2022/12/18 10:33:22;;;;;;;11.00;7.70;;;;;;;-141.59;100.00;61776.25;5037663;28;20307;-91
2022/12/18 10:35:52;;;;;;;11.07;6.87;;;;;;;-141.59;100.00;61776.25;5031919;28;20320;-91
2022/12/18 10:38:25;;;;;;;11.00;6.87;;;;;;;-141.59;100.00;61776.25;5043769;28;20276;-89
2022/12/18 10:40:56;;;;;;;12.03;7.27;;;;;;;-141.59;100.00;61776.25;5039178;28;20210;-93
2022/12/18 10:43:26;;;;;;;13.33;7.80;;;;;;;-141.59;100.00;61776.25;5038601;28;20202;-86
2022/12/18 10:46:12;;;;;;;13.73;7.57;;;;;;;-141.59;100.00;61776.25;5039849;28;20202;-85
2022/12/18 10:48:48;;;;;;;14.10;7.67;;;;;;;-141.59;100.00;61776.25;5040159;28;20284;-86
2022/12/18 10:51:24;;;;;;;13.23;7.60;;;;;;;-141.59;100.00;61776.25;5040456;28;20210;-86
2022/12/18 10:53:57;;;;;;;12.80;7.33;;;;;;;-141.59;100.00;61776.25;5040531;28;20194;-86
2022/12/18 10:56:27;;;;;;;14.60;8.57;;;;;;;-141.59;100.00;61776.25;5040107;28;20207;-86
2022/12/18 10:59:00;;;;;;;16.53;7.70;;;;;;;-141.59;100.00;61776.25;5036136;28;20257;-89
2022/12/18 11:01:28;;;;;;;13.83;8.10;;;;;;;-141.59;100.00;61776.25;5039640;28;20214;-89
2022/12/18 11:04:10;;;;;;;13.27;7.57;;;;;;;-141.59;100.00;61776.25;5041327;28;20202;-83
2022/12/18 11:06:54;;;;;;;14.17;7.97;;;;;;;-141.59;100.00;61776.25;5041156;28;20217;-87
2022/12/18 11:09:24;;;;;;;13.57;7.70;;;;;;;-141.59;100.00;61776.25;5041381;28;20218;-88
2022/12/18 11:11:56;;;;;;;12.60;7.90;;;;;;;-141.59;100.00;61776.25;5044158;28;20314;-87
2022/12/18 11:14:25;;;;;;;14.37;8.70;;;;;;;-141.59;100.00;61776.25;5044353;28;20227;-87
2022/12/18 11:16:55;;;;;;;14.37;8.60;;;;;;;-141.59;100.00;61776.25;5041731;28;20202;-86
2022/12/18 11:19:29;;;;;;;12.80;8.70;;;;;;;-141.59;100.00;61776.25;5042333;28;20198;-86
2022/12/18 11:21:58;;;;;;;12.57;7.20;;;;;;;-141.59;100.00;61776.25;5044744;28;20220;-86
2022/12/18 11:24:30;;;;;;;12.83;8.13;;;;;;;-141.59;100.00;61776.25;5039563;28;20205;-86
2022/12/18 11:27:01;;;;;;;13.17;8.60;;;;;;;-141.59;100.00;61776.25;5039290;28;20264;-87
2022/12/18 11:29:34;;;;;;;12.60;8.23;;;;;;;-141.59;100.00;61776.25;5044656;28;20214;-87